»·PEaware :: ROA2710 KLAS-KRNO

ROA2710 :: KLAS-KRNO

FLIGHT INFORMATION

Flight Status: Arrived
Operator: Unknown
More flights by this operator :: More flights under this callsign
Pilot: Henderson P. (1210)
Aircraft: MCDONNELL-DOUGLAS MD-82
(MD82)
More flights by this aircraft type
Origin: KLAS McCarran Intl
United States
Destination: KRNO Reno/Tahoe Intl
United States
More flights between these airports :: More routes between these airports
Route: +SHEAD1 KENNO RUSME2
File this flight plan on PilotEdge
Remarks:
Altitude:
(Current/Filed)
34,000ft
Speed:
(Current/Filed)
448kts
Departed: 05-Aug-18 05:11 PM
Arrived: 05-Aug-18 06:08 PM
Distance/Time
Traveled:
300nm/0:57
Distance/Time
To Go:
Arrived

Flight Plot

Page will automatically refresh every two minutes.

Flight plan parsing failed; only flown route is shown


Map Options




Map Legend


Flown Route
Filed Route
Departure Airport
Arrival Airport
Navaid (VOR, NDB)
Fix

Horizontal Profiles

Position Reports

Time Latitude Longitude Heading Altitude Ground
Speed
05-Aug-18 16:30 36.086850 -115.152415 245 2190ft 0kts
05-Aug-18 16:31 36.086850 -115.152415 245 2190ft 0kts
05-Aug-18 16:32 36.086850 -115.152415 245 2190ft 0kts
05-Aug-18 16:33 36.086850 -115.152415 245 2190ft 0kts
05-Aug-18 16:34 36.086850 -115.152415 245 2190ft 0kts
05-Aug-18 16:35 36.086850 -115.152415 245 2190ft 0kts
05-Aug-18 16:36 36.086850 -115.152415 245 2190ft 0kts
05-Aug-18 16:37 36.086850 -115.152415 245 2190ft 0kts
05-Aug-18 16:38 36.086850 -115.152415 245 2190ft 0kts
05-Aug-18 16:39 36.086850 -115.152415 245 2190ft 0kts
05-Aug-18 16:40 36.086850 -115.152415 245 2190ft 0kts
05-Aug-18 16:41 36.086850 -115.152415 245 2190ft 0kts
05-Aug-18 16:42 36.086850 -115.152415 245 2190ft 0kts
05-Aug-18 16:43 36.086850 -115.152415 245 2190ft 0kts
05-Aug-18 16:44 36.086850 -115.152415 245 2190ft 0kts
05-Aug-18 16:45 36.086850 -115.152415 245 2190ft 0kts
05-Aug-18 16:46 36.086850 -115.152415 245 2190ft 0kts
05-Aug-18 16:47 36.086850 -115.152415 245 2190ft 0kts
05-Aug-18 16:48 36.086850 -115.152415 245 2190ft 0kts
05-Aug-18 16:49 36.086850 -115.152415 245 2190ft 0kts
05-Aug-18 16:50 36.086850 -115.152415 245 2190ft 0kts
05-Aug-18 16:51 36.086850 -115.152415 245 2190ft 0kts
05-Aug-18 16:52 36.086850 -115.152415 245 2190ft 0kts
05-Aug-18 16:53 36.086850 -115.152415 245 2190ft 0kts
05-Aug-18 16:54 36.086850 -115.152415 245 2190ft 0kts
05-Aug-18 16:55 36.086850 -115.152415 245 2190ft 0kts
05-Aug-18 16:56 36.086850 -115.152415 245 2190ft 0kts
05-Aug-18 16:57 36.086850 -115.152415 245 2190ft 0kts
05-Aug-18 16:58 36.086922 -115.152174 262 2190ft 2kts
05-Aug-18 16:59 36.086642 -115.151736 345 2190ft 0kts
05-Aug-18 17:00 36.086645 -115.151737 345 2190ft 0kts
05-Aug-18 17:01 36.086647 -115.151737 345 2190ft 0kts
05-Aug-18 17:02 36.086654 -115.151739 345 2190ft 0kts
05-Aug-18 17:03 36.087182 -115.151929 335 2190ft 8kts
05-Aug-18 17:04 36.087891 -115.154052 269 2190ft 0kts
05-Aug-18 17:05 36.087891 -115.154056 269 2190ft 0kts
05-Aug-18 17:06 36.087891 -115.154060 269 2190ft 0kts
05-Aug-18 17:07 36.087890 -115.154073 269 2190ft 1kts
05-Aug-18 17:08 36.089368 -115.156627 24 2190ft 20kts
05-Aug-18 17:09 36.095454 -115.153138 24 2190ft 23kts
05-Aug-18 17:10 36.097935 -115.152363 296 2190ft 0kts
05-Aug-18 17:11 36.098087 -115.152754 295 2190ft 8kts
05-Aug-18 17:12 36.089757 -115.158648 204 2190ft 108kts
05-Aug-18 17:13 36.050162 -115.181175 205 3553ft 169kts
05-Aug-18 17:14 36.002630 -115.217220 232 4355ft 235kts
05-Aug-18 17:15 35.971347 -115.294175 243 5902ft 264kts
05-Aug-18 17:16 35.921997 -115.364823 224 7897ft 282kts
05-Aug-18 17:17 35.878199 -115.443891 267 9583ft 294kts
05-Aug-18 17:18 35.886985 -115.549646 274 11024ft 336kts
05-Aug-18 17:19 35.891855 -115.664663 270 11318ft 340kts
05-Aug-18 17:20 35.893473 -115.780599 269 14173ft 339kts
05-Aug-18 17:21 35.895281 -115.898819 269 16438ft 349kts
05-Aug-18 17:22 35.925881 -116.010949 308 18403ft 370kts
05-Aug-18 17:23 36.004947 -116.096699 315 20071ft 383kts
05-Aug-18 17:24 36.084246 -116.186670 313 21531ft 391kts
05-Aug-18 17:25 36.164320 -116.279902 313 22830ft 400kts
05-Aug-18 17:26 36.246704 -116.374979 313 24005ft 408kts
05-Aug-18 17:27 36.330092 -116.471416 312 25145ft 413kts
05-Aug-18 17:28 36.414244 -116.570336 312 26224ft 419kts
05-Aug-18 17:29 36.499347 -116.669889 311 27275ft 423kts
05-Aug-18 17:30 36.588217 -116.767796 319 28215ft 434kts
05-Aug-18 17:31 36.693181 -116.846531 324 29062ft 443kts
05-Aug-18 17:32 36.799168 -116.924687 322 30098ft 439kts
05-Aug-18 17:33 36.902853 -117.004733 321 31105ft 437kts
05-Aug-18 17:34 37.006599 -117.084647 321 32015ft 437kts
05-Aug-18 17:35 37.110265 -117.163365 320 32902ft 435kts
05-Aug-18 17:36 37.213318 -117.243095 320 33512ft 438kts
05-Aug-18 17:37 37.315723 -117.325483 314 34040ft 434kts
05-Aug-18 17:38 37.405753 -117.422385 309 34089ft 424kts
05-Aug-18 17:39 37.494773 -117.520552 306 34110ft 421kts
05-Aug-18 17:40 37.567419 -117.632630 297 34110ft 411kts
05-Aug-18 17:41 37.637448 -117.746968 299 34095ft 413kts
05-Aug-18 17:42 37.708520 -117.860168 299 34054ft 409kts
05-Aug-18 17:43 37.779099 -117.973946 299 34050ft 412kts
05-Aug-18 17:44 37.849432 -118.087846 298 34046ft 409kts
05-Aug-18 17:45 37.911037 -118.187728 298 34046ft 411kts
05-Aug-18 17:46 37.981395 -118.302123 298 34047ft 411kts
05-Aug-18 17:47 38.051737 -118.416645 299 34176ft 411kts
05-Aug-18 17:48 38.121650 -118.531212 299 34201ft 410kts
05-Aug-18 17:49 38.191342 -118.645437 299 34200ft 409kts
05-Aug-18 17:50 38.261171 -118.760269 299 34197ft 410kts
05-Aug-18 17:51 38.330588 -118.874880 299 34207ft 410kts
05-Aug-18 17:52 38.399299 -118.989814 300 33192ft 404kts
05-Aug-18 17:53 38.467895 -119.104309 301 31184ft 411kts
05-Aug-18 17:54 38.535215 -119.223163 297 29238ft 408kts
05-Aug-18 17:55 38.595863 -119.344046 298 26553ft 396kts
05-Aug-18 17:56 38.655083 -119.458661 298 24041ft 377kts
05-Aug-18 17:57 38.711284 -119.568252 298 21651ft 362kts
05-Aug-18 17:58 38.763947 -119.671360 298 19415ft 349kts
05-Aug-18 17:59 38.843415 -119.737570 343 17392ft 351kts
05-Aug-18 18:00 38.936906 -119.760355 349 15437ft 326kts
05-Aug-18 18:01 39.025394 -119.768174 355 13345ft 312kts
05-Aug-18 18:02 39.106027 -119.769426 358 12608ft 263kts
05-Aug-18 18:03 39.182564 -119.770066 358 11169ft 277kts
05-Aug-18 18:04 39.258475 -119.770064 359 9695ft 259kts
05-Aug-18 18:05 39.328541 -119.769737 359 8086ft 247kts
05-Aug-18 18:06 39.393319 -119.769453 359 6660ft 203kts
05-Aug-18 18:07 39.446107 -119.769315 357 5237ft 174kts
05-Aug-18 18:08 39.490810 -119.769297 359 4426ft 145kts
05-Aug-18 18:09 39.510070 -119.769251 358 4424ft 18kts
05-Aug-18 18:10 39.509360 -119.771489 179 4424ft 16kts
05-Aug-18 18:11 39.507510 -119.772936 182 4424ft 1kts
05-Aug-18 18:12 39.507499 -119.772937 182 4424ft 0kts
05-Aug-18 18:13 39.507499 -119.772937 182 4424ft 0kts
05-Aug-18 18:14 39.507499 -119.772937 182 4424ft 0kts
05-Aug-18 18:15 39.507499 -119.772937 182 4424ft 0kts
05-Aug-18 18:16 39.507499 -119.772937 182 4424ft 0kts
05-Aug-18 18:17 39.507499 -119.772937 182 4424ft 0kts
05-Aug-18 18:18 39.507499 -119.772937 182 4424ft 0kts
05-Aug-18 18:19 39.507499 -119.772937 182 4424ft 0kts
05-Aug-18 18:20 39.507499 -119.772937 182 4424ft 0kts
05-Aug-18 18:21 39.507499 -119.772937 182 4424ft 0kts
05-Aug-18 18:22 39.507499 -119.772937 182 4424ft 0kts

Navigation Log

Ident Type
Flight plan parsing failed, navigation log unavailable